createdAt,value
2023-03-22T00:02:02.748Z,9.87
2023-03-22T00:04:29.319Z,10.77
2023-03-22T00:06:55.908Z,11.27
2023-03-22T00:09:22.376Z,10.00
2023-03-22T00:11:51.064Z,11.57
2023-03-22T00:14:18.427Z,10.70
2023-03-22T00:16:46.378Z,10.77
2023-03-22T00:19:13.085Z,10.87
2023-03-22T00:21:39.585Z,10.83
2023-03-22T00:24:06.636Z,10.63
2023-03-22T00:26:33.202Z,10.83
2023-03-22T00:29:00.836Z,11.10
2023-03-22T00:31:27.391Z,11.70
2023-03-22T00:33:53.923Z,12.27
2023-03-22T00:36:20.539Z,10.43
2023-03-22T00:38:47.142Z,11.20
2023-03-22T00:41:16.801Z,12.43
2023-03-22T00:43:44.163Z,11.70
2023-03-22T00:46:12.118Z,12.60
2023-03-22T00:48:38.899Z,11.77
2023-03-22T00:51:06.304Z,12.00
2023-03-22T00:53:33.088Z,12.23
2023-03-22T00:56:00.039Z,12.50
2023-03-22T00:58:26.554Z,12.90
2023-03-22T01:00:53.094Z,12.20
2023-03-22T01:03:22.003Z,12.07
2023-03-22T01:05:49.488Z,12.20
2023-03-22T01:08:16.941Z,12.40
2023-03-22T01:10:44.239Z,12.87
2023-03-22T01:13:11.840Z,12.73
2023-03-22T01:15:38.501Z,12.23
2023-03-22T01:18:05.072Z,12.73
2023-03-22T01:20:32.115Z,11.80
2023-03-22T01:22:59.460Z,12.17
2023-03-22T01:25:26.125Z,12.87
2023-03-22T01:27:52.891Z,11.97
2023-03-22T01:30:19.402Z,13.07
2023-03-22T01:32:45.893Z,12.77
2023-03-22T01:35:12.565Z,13.30
2023-03-22T01:37:39.151Z,12.83
2023-03-22T01:40:07.396Z,12.37
2023-03-22T01:42:34.744Z,12.93
2023-03-22T01:45:13.527Z,12.97
2023-03-22T01:47:42.895Z,11.10
2023-03-22T01:50:51.802Z,12.23
2023-03-22T01:53:19.821Z,13.83
2023-03-22T01:55:47.118Z,11.73
2023-03-22T01:58:18.220Z,12.53
2023-03-22T02:00:47.736Z,12.87
2023-03-22T02:03:18.989Z,12.97
2023-03-22T02:05:47.542Z,12.27
2023-03-22T02:08:14.979Z,12.33
2023-03-22T02:10:42.199Z,13.37
2023-03-22T02:13:28.667Z,13.50
2023-03-22T02:16:11.177Z,12.00
2023-03-22T02:18:55.944Z,11.93
2023-03-22T02:21:25.270Z,12.30
2023-03-22T02:24:23.606Z,13.47
2023-03-22T02:27:10.604Z,11.97
2023-03-22T02:29:45.171Z,13.30
2023-03-22T02:32:11.629Z,12.67
2023-03-22T02:34:58.315Z,12.10
2023-03-22T02:37:49.007Z,13.03
2023-03-22T02:40:27.934Z,12.23
2023-03-22T02:43:18.769Z,11.90
2023-03-22T02:45:51.008Z,11.87
2023-03-22T02:48:28.492Z,12.97
2023-03-22T02:51:00.470Z,12.90
2023-03-22T02:53:42.099Z,13.00
2023-03-22T02:56:21.908Z,11.57
2023-03-22T02:58:53.323Z,11.53
2023-03-22T03:01:34.321Z,12.13
2023-03-22T03:04:05.733Z,12.47
2023-03-22T03:06:39.060Z,11.87
2023-03-22T03:09:07.882Z,13.33
2023-03-22T03:11:34.478Z,12.30
2023-03-22T03:14:00.905Z,12.07
2023-03-22T03:16:30.988Z,12.67
2023-03-22T03:19:20.436Z,12.57
2023-03-22T03:22:03.016Z,12.40
2023-03-22T03:24:37.682Z,10.93
2023-03-22T03:27:27.408Z,10.97
2023-03-22T03:30:05.773Z,11.53
2023-03-22T03:32:43.489Z,11.77
2023-03-22T03:35:28.181Z,10.97
2023-03-22T03:38:03.326Z,11.10
2023-03-22T03:40:36.234Z,12.10
2023-03-22T03:43:04.922Z,11.60
2023-03-22T03:45:31.747Z,11.47
2023-03-22T03:48:02.646Z,12.03
2023-03-22T03:50:29.813Z,11.90
2023-03-22T03:52:56.912Z,10.87
2023-03-22T03:55:24.467Z,11.23
2023-03-22T03:57:51.218Z,10.50
2023-03-22T04:00:18.832Z,10.63
2023-03-22T04:02:45.644Z,10.57
2023-03-22T04:05:12.966Z,10.07
2023-03-22T04:07:39.440Z,9.00
2023-03-22T04:10:06.643Z,9.17
2023-03-22T04:12:33.823Z,9.50
2023-03-22T04:15:00.444Z,9.50
2023-03-22T04:17:29.246Z,9.03
2023-03-22T04:19:59.024Z,9.50
2023-03-22T04:22:26.396Z,8.90
2023-03-22T04:24:52.864Z,8.90
2023-03-22T04:27:21.450Z,8.67
2023-03-22T04:29:51.357Z,8.47
2023-03-22T04:32:19.214Z,8.37
2023-03-22T04:34:46.563Z,8.37
2023-03-22T04:37:14.604Z,8.03
2023-03-22T04:39:41.444Z,8.03
2023-03-22T04:42:08.392Z,8.07
2023-03-22T04:44:35.623Z,7.73
2023-03-22T04:47:02.383Z,7.93
2023-03-22T04:49:28.982Z,8.20
2023-03-22T04:51:56.114Z,8.90
2023-03-22T04:54:23.969Z,7.87
2023-03-22T04:56:50.926Z,8.30
2023-03-22T04:59:20.357Z,8.27
2023-03-22T05:01:47.922Z,7.97
2023-03-22T05:04:15.642Z,7.60
2023-03-22T05:06:42.415Z,8.10
2023-03-22T05:09:09.093Z,7.77
2023-03-22T05:11:36.348Z,8.43
2023-03-22T05:14:03.675Z,8.23
2023-03-22T05:16:30.383Z,9.20
2023-03-22T05:18:56.939Z,7.77
2023-03-22T05:21:28.198Z,7.77
2023-03-22T05:23:56.577Z,7.40
2023-03-22T05:26:26.248Z,7.93
2023-03-22T05:28:53.974Z,8.23
2023-03-22T05:31:24.389Z,8.67
2023-03-22T05:33:52.152Z,7.50
2023-03-22T05:36:20.465Z,8.27
2023-03-22T05:38:47.323Z,9.07
2023-03-22T05:41:14.101Z,8.13
2023-03-22T05:43:41.179Z,8.03
2023-03-22T05:46:09.265Z,9.00
2023-03-22T05:48:37.136Z,7.50
2023-03-22T05:51:09.015Z,8.03
2023-03-22T05:53:35.788Z,7.33
2023-03-22T05:56:02.297Z,7.80
2023-03-22T05:58:30.749Z,7.03
2023-03-22T06:01:01.061Z,7.13
2023-03-22T06:03:28.495Z,6.27
2023-03-22T06:05:55.115Z,6.70
2023-03-22T06:08:26.059Z,6.07
2023-03-22T06:10:53.973Z,6.40
2023-03-22T06:13:21.139Z,6.00
2023-03-22T06:15:48.166Z,6.20
2023-03-22T06:18:14.796Z,6.63
2023-03-22T06:20:42.001Z,6.17
2023-03-22T06:23:08.736Z,6.03
2023-03-22T06:25:35.331Z,6.30
2023-03-22T06:28:02.347Z,6.67
2023-03-22T06:30:29.085Z,6.43
2023-03-22T06:32:55.725Z,5.63
2023-03-22T06:35:22.303Z,5.67
2023-03-22T06:37:48.883Z,5.10
2023-03-22T06:40:15.460Z,5.77
2023-03-22T06:42:42.004Z,5.67
2023-03-22T06:45:08.968Z,6.63
2023-03-22T06:47:35.606Z,5.67
2023-03-22T06:50:02.123Z,7.73
2023-03-22T06:52:28.639Z,6.87
2023-03-22T06:54:55.173Z,6.20
2023-03-22T06:57:21.711Z,5.77
2023-03-22T06:59:48.414Z,6.13
2023-03-22T07:02:15.033Z,6.70
2023-03-22T07:04:41.550Z,7.10
2023-03-22T07:07:08.155Z,6.50
2023-03-22T07:09:34.606Z,6.63
2023-03-22T07:12:01.234Z,6.60
2023-03-22T07:14:31.316Z,6.33
2023-03-22T07:16:57.900Z,6.43
2023-03-22T07:19:24.502Z,6.07
2023-03-22T07:21:51.143Z,6.17
2023-03-22T07:24:17.711Z,6.90
2023-03-22T07:26:44.260Z,7.43
2023-03-22T07:29:10.870Z,6.77
2023-03-22T07:31:38.039Z,7.20
2023-03-22T07:34:04.653Z,6.93
2023-03-22T07:36:31.796Z,7.77
2023-03-22T07:38:58.350Z,7.27
2023-03-22T07:41:27.040Z,7.20
2023-03-22T07:44:02.242Z,8.87
2023-03-22T07:46:34.475Z,8.03
2023-03-22T07:49:01.022Z,7.83
2023-03-22T07:51:27.605Z,8.23
2023-03-22T07:53:54.335Z,8.73
2023-03-22T07:56:20.930Z,7.37
2023-03-22T07:58:47.472Z,7.63
2023-03-22T08:01:14.187Z,8.87
2023-03-22T08:03:40.742Z,8.37
2023-03-22T08:06:08.168Z,8.20
2023-03-22T08:08:36.958Z,8.73
2023-03-22T08:11:07.709Z,10.10
2023-03-22T08:13:34.507Z,9.57
2023-03-22T08:16:01.784Z,9.13
2023-03-22T08:18:28.433Z,8.57
2023-03-22T08:20:56.592Z,8.73
2023-03-22T08:23:38.374Z,8.77
2023-03-22T08:26:07.407Z,8.80
2023-03-22T08:28:33.977Z,9.70
2023-03-22T08:31:00.444Z,9.27
2023-03-22T08:33:27.088Z,9.67
2023-03-22T08:36:14.045Z,9.33
2023-03-22T08:38:42.531Z,9.63
2023-03-22T08:41:09.406Z,10.10
2023-03-22T08:43:35.909Z,9.60
2023-03-22T08:46:02.900Z,10.27
2023-03-22T08:48:30.817Z,9.33
2023-03-22T08:50:58.188Z,9.53
2023-03-22T08:53:24.828Z,8.80
2023-03-22T08:55:51.320Z,8.67
2023-03-22T08:58:20.066Z,8.70
2023-03-22T09:00:49.681Z,8.50
2023-03-22T09:03:17.092Z,8.27
2023-03-22T09:05:43.729Z,7.77
2023-03-22T09:08:18.181Z,8.57
2023-03-22T09:10:48.057Z,7.97
2023-03-22T09:13:16.815Z,7.20
2023-03-22T09:15:45.060Z,7.90
2023-03-22T09:18:12.058Z,8.17
2023-03-22T09:20:39.455Z,7.33
2023-03-22T09:23:06.783Z,6.93
2023-03-22T09:25:33.556Z,7.63
2023-03-22T09:28:00.045Z,5.97
2023-03-22T09:30:27.353Z,6.70
2023-03-22T09:32:54.133Z,6.60
2023-03-22T09:35:20.919Z,6.30
2023-03-22T09:37:49.654Z,5.73
2023-03-22T09:40:17.808Z,5.27
2023-03-22T09:42:47.577Z,8.67
2023-03-22T09:45:18.696Z,5.47
2023-03-22T09:47:49.163Z,5.27
2023-03-22T09:50:21.258Z,5.53
2023-03-22T09:52:48.664Z,4.60
2023-03-22T09:55:43.438Z,4.50
2023-03-22T09:58:28.662Z,5.07
2023-03-22T10:01:21.862Z,4.83
2023-03-22T10:04:17.111Z,4.70
2023-03-22T10:06:50.091Z,4.10
2023-03-22T10:09:28.460Z,4.57
2023-03-22T10:12:06.108Z,4.57
2023-03-22T10:14:39.334Z,3.87
2023-03-22T10:17:13.994Z,3.60
2023-03-22T10:19:49.753Z,3.53
2023-03-22T10:22:22.792Z,2.87
2023-03-22T10:24:52.155Z,3.67
2023-03-22T10:27:22.079Z,4.30
2023-03-22T10:30:08.425Z,3.70
2023-03-22T10:32:58.320Z,4.13
2023-03-22T10:35:29.013Z,3.87
2023-03-22T10:37:59.761Z,3.87
2023-03-22T10:40:34.040Z,3.73
2023-03-22T10:43:05.853Z,3.07
2023-03-22T10:45:35.332Z,3.30
2023-03-22T10:48:28.452Z,3.40
2023-03-22T10:50:56.100Z,2.90
2023-03-22T10:53:36.163Z,3.37
2023-03-22T10:56:03.428Z,3.10
2023-03-22T10:58:32.376Z,2.50
2023-03-22T11:01:05.081Z,3.00
2023-03-22T11:03:50.926Z,2.43
2023-03-22T11:06:25.087Z,2.03
2023-03-22T11:08:59.642Z,2.03
2023-03-22T11:11:27.735Z,3.20
2023-03-22T11:14:24.974Z,2.83
2023-03-22T11:17:06.630Z,3.47
2023-03-22T11:19:41.893Z,3.23
2023-03-22T11:22:21.917Z,2.80
2023-03-22T11:24:48.469Z,3.13
2023-03-22T11:27:22.056Z,2.73
2023-03-22T11:29:59.696Z,2.53
2023-03-22T11:32:36.257Z,2.90
2023-03-22T11:35:14.472Z,2.33
2023-03-22T11:37:46.983Z,2.90
2023-03-22T11:40:23.885Z,2.90
2023-03-22T11:42:56.290Z,2.70
2023-03-22T11:45:29.536Z,2.43
2023-03-22T11:48:03.239Z,2.70
2023-03-22T11:50:32.608Z,2.83
2023-03-22T11:53:02.845Z,2.67
2023-03-22T11:55:34.365Z,2.40
2023-03-22T11:58:04.186Z,2.83
2023-03-22T12:00:33.384Z,2.87
2023-03-22T12:03:07.042Z,2.83
2023-03-22T12:05:37.186Z,2.40
2023-03-22T12:08:09.631Z,2.60
2023-03-22T12:10:42.224Z,2.67
2023-03-22T12:13:25.139Z,2.80
2023-03-22T12:15:58.143Z,3.47
2023-03-22T12:18:41.502Z,3.07
2023-03-22T12:21:10.241Z,3.20
2023-03-22T12:23:37.038Z,3.47
2023-03-22T12:26:16.086Z,3.47
2023-03-22T12:29:05.142Z,3.40
2023-03-22T12:31:39.012Z,3.10
2023-03-22T12:34:18.509Z,3.43
2023-03-22T12:36:51.006Z,3.67
2023-03-22T12:39:32.055Z,3.27
2023-03-22T12:42:04.362Z,3.07
2023-03-22T12:44:40.408Z,2.90
2023-03-22T12:47:22.647Z,3.53
2023-03-22T12:49:56.626Z,3.00
2023-03-22T12:52:47.869Z,3.07
2023-03-22T12:55:41.399Z,3.10
2023-03-22T12:58:10.083Z,4.23
2023-03-22T13:00:36.526Z,3.20
2023-03-22T13:03:15.330Z,4.10
2023-03-22T13:05:42.690Z,4.63
2023-03-22T13:08:10.372Z,20.00
2023-03-22T13:10:38.688Z,5.73
2023-03-22T13:13:12.240Z,6.97
2023-03-22T13:15:42.594Z,6.00
2023-03-22T13:18:37.759Z,6.20
2023-03-22T13:21:27.037Z,7.70
2023-03-22T13:24:05.619Z,7.07
2023-03-22T13:26:35.189Z,7.63
2023-03-22T13:29:10.169Z,7.03
2023-03-22T13:31:42.494Z,6.60
2023-03-22T13:34:21.860Z,6.87
2023-03-22T13:36:56.828Z,6.47
2023-03-22T13:39:25.519Z,7.30
2023-03-22T13:42:07.800Z,7.33
2023-03-22T13:44:40.286Z,7.07
2023-03-22T13:47:46.497Z,7.10
2023-03-22T13:50:28.085Z,8.07
2023-03-22T13:53:15.586Z,8.13
2023-03-22T13:56:07.012Z,6.80
2023-03-22T13:58:45.525Z,7.53
2023-03-22T14:01:38.081Z,6.83
2023-03-22T14:04:13.346Z,8.30
2023-03-22T14:06:52.858Z,7.23
2023-03-22T14:09:31.649Z,7.03
2023-03-22T14:12:18.043Z,7.33
2023-03-22T14:14:48.923Z,5.37
2023-03-22T14:17:34.909Z,6.23
2023-03-22T14:20:04.949Z,5.60
2023-03-22T14:52:29.752Z,5.80
2023-03-22T14:54:59.675Z,5.80
2023-03-22T14:57:36.822Z,5.40
2023-03-22T15:00:16.182Z,4.73
2023-03-22T15:02:45.937Z,4.87
2023-03-22T15:05:17.586Z,5.03
2023-03-22T15:07:50.642Z,4.83
2023-03-22T15:10:21.523Z,5.10
2023-03-22T15:12:50.813Z,4.17
2023-03-22T15:15:20.392Z,4.13
2023-03-22T15:17:48.441Z,4.57
2023-03-22T15:20:25.379Z,4.40
2023-03-22T15:22:54.246Z,4.03
2023-03-22T15:25:28.707Z,4.90
2023-03-22T15:27:56.484Z,4.87
2023-03-22T15:30:23.386Z,4.57
2023-03-22T15:32:50.022Z,5.13
2023-03-22T15:35:19.135Z,4.47
2023-03-22T15:37:54.724Z,4.67
2023-03-22T15:40:33.565Z,4.23
2023-03-22T15:43:14.243Z,4.60
2023-03-22T15:45:41.038Z,4.07
2023-03-22T15:48:19.451Z,4.43
2023-03-22T15:50:50.729Z,14.70
2023-03-22T15:53:31.071Z,8.87
2023-03-22T15:55:58.508Z,4.53
2023-03-22T15:58:29.789Z,5.00
2023-03-22T16:01:09.797Z,4.33
2023-03-22T16:03:42.609Z,6.63
2023-03-22T16:06:11.835Z,4.87
2023-03-22T16:08:38.675Z,5.00
2023-03-22T16:11:06.512Z,5.00
2023-03-22T16:13:38.268Z,5.53
2023-03-22T16:16:05.343Z,5.20
2023-03-22T16:18:32.228Z,5.63
2023-03-22T16:20:58.847Z,5.63
2023-03-22T16:23:26.543Z,5.40
2023-03-22T16:25:53.311Z,5.63
2023-03-22T16:28:20.206Z,5.57
2023-03-22T16:30:47.520Z,5.27
2023-03-22T16:33:15.535Z,6.40
2023-03-22T16:35:42.529Z,5.97
2023-03-22T16:38:16.649Z,5.40
2023-03-22T16:40:52.379Z,5.33
2023-03-22T16:43:19.677Z,5.90
2023-03-22T16:45:48.797Z,6.33
2023-03-22T16:48:15.843Z,5.57
2023-03-22T16:50:44.929Z,5.93
2023-03-22T16:53:17.336Z,6.37
2023-03-22T16:55:46.154Z,6.17
2023-03-22T16:58:13.707Z,6.33
2023-03-22T17:00:40.821Z,6.07
2023-03-22T17:03:12.618Z,6.20
2023-03-22T17:05:39.338Z,6.37
2023-03-22T17:08:16.340Z,6.20
2023-03-22T17:10:43.205Z,7.40
2023-03-22T17:13:16.204Z,6.80
2023-03-22T17:15:48.700Z,9.40
2023-03-22T17:18:16.498Z,6.53
2023-03-22T17:20:46.814Z,5.43
2023-03-22T17:23:14.635Z,6.17
2023-03-22T17:25:44.341Z,6.43
2023-03-22T17:28:12.779Z,6.43
2023-03-22T17:30:39.758Z,7.03
2023-03-22T17:35:34.362Z,6.67
2023-03-22T17:38:02.949Z,6.23
2023-03-22T17:40:39.744Z,6.37
2023-03-22T17:43:15.104Z,5.70
2023-03-22T17:46:11.211Z,5.60
2023-03-22T17:48:29.059Z,6.27
2023-03-22T17:50:56.371Z,5.63
2023-03-22T17:54:12.990Z,5.73
2023-03-22T17:56:43.199Z,6.13
2023-03-22T17:58:57.298Z,5.67
2023-03-22T18:01:23.945Z,6.00
2023-03-22T18:03:51.249Z,5.83
2023-03-22T18:06:18.221Z,5.87
2023-03-22T18:08:44.953Z,5.57
2023-03-22T18:11:13.998Z,5.43
2023-03-22T18:13:44.404Z,5.53
2023-03-22T18:16:12.302Z,5.53
2023-03-22T18:18:39.275Z,5.57
2023-03-22T18:21:08.974Z,5.73
2023-03-22T18:23:36.210Z,5.07
2023-03-22T18:26:08.171Z,4.90
2023-03-22T18:28:42.560Z,5.17
2023-03-22T18:31:11.229Z,4.77
2023-03-22T18:33:39.800Z,4.90
2023-03-22T18:36:07.776Z,4.60
2023-03-22T18:39:09.778Z,4.50
2023-03-22T18:43:52.512Z,3.70
2023-03-22T18:46:19.987Z,4.23
2023-03-22T18:48:46.640Z,3.83
2023-03-22T18:51:13.761Z,3.60
2023-03-22T18:53:40.580Z,4.10
2023-03-22T18:56:09.810Z,4.17
2023-03-22T18:58:36.637Z,3.80
2023-03-22T19:01:03.534Z,3.60
2023-03-22T19:03:31.335Z,3.63
2023-03-22T19:06:12.000Z,3.63
2023-03-22T19:08:40.057Z,3.87
2023-03-22T19:11:06.879Z,3.73
2023-03-22T19:13:33.814Z,3.17
2023-03-22T19:16:05.400Z,3.60
2023-03-22T19:18:33.172Z,4.10
2023-03-22T19:21:10.215Z,4.23
2023-03-22T19:23:39.940Z,3.70
2023-03-22T19:26:09.280Z,3.90
2023-03-22T19:28:39.032Z,3.70
2023-03-22T19:31:06.770Z,3.50
2023-03-22T19:36:06.794Z,3.10
2023-03-22T19:38:33.401Z,3.57
2023-03-22T19:41:38.759Z,3.23
2023-03-22T19:43:48.509Z,3.23
2023-03-22T19:46:15.140Z,4.10
2023-03-22T19:48:42.095Z,3.53
2023-03-22T19:51:08.915Z,3.67
2023-03-22T19:54:17.146Z,3.43
2023-03-22T19:56:24.580Z,3.33
2023-03-22T19:58:52.429Z,3.53
2023-03-22T20:01:19.069Z,3.70
2023-03-22T20:03:46.365Z,3.83
2023-03-22T20:06:13.013Z,3.53
2023-03-22T20:08:40.100Z,2.93
2023-03-22T20:11:07.081Z,2.87
2023-03-22T20:13:34.408Z,4.23
2023-03-22T20:16:01.429Z,5.57
2023-03-22T20:18:28.541Z,3.33
2023-03-22T20:20:55.234Z,3.03
2023-03-22T20:23:25.669Z,3.43
2023-03-22T20:26:00.842Z,3.07
2023-03-22T20:28:29.032Z,3.60
2023-03-22T20:30:56.277Z,3.17
2023-03-22T20:33:23.943Z,4.60
2023-03-22T20:35:55.492Z,3.17
2023-03-22T20:38:23.250Z,3.13
2023-03-22T20:40:49.859Z,3.90
2023-03-22T20:43:16.665Z,4.10
2023-03-22T20:45:43.512Z,3.50
2023-03-22T20:48:10.183Z,3.63
2023-03-22T20:50:36.759Z,4.03
2023-03-22T20:53:04.392Z,3.97
2023-03-22T20:55:31.319Z,4.00
2023-03-22T20:57:58.217Z,4.17
2023-03-22T21:00:25.143Z,3.77
2023-03-22T21:02:54.322Z,3.90
2023-03-22T21:05:22.118Z,4.00
2023-03-22T21:07:50.628Z,4.27
2023-03-22T21:10:19.076Z,4.60
2023-03-22T21:12:46.408Z,3.90
2023-03-22T21:15:14.368Z,3.77
2023-03-22T21:17:42.243Z,4.27
2023-03-22T21:20:12.071Z,3.90
2023-03-22T21:22:44.080Z,4.30
2023-03-22T21:25:10.931Z,4.10
2023-03-22T21:27:38.738Z,4.33
2023-03-22T21:30:07.718Z,4.97
2023-03-22T21:32:34.315Z,4.90
2023-03-22T21:35:00.982Z,4.20
2023-03-22T21:37:27.814Z,4.80
2023-03-22T21:39:54.857Z,4.80
2023-03-22T21:42:24.229Z,4.27
2023-03-22T21:44:50.930Z,5.00
2023-03-22T21:47:21.669Z,27.53
2023-03-22T21:49:55.726Z,5.13
2023-03-22T21:52:24.745Z,4.47
2023-03-22T21:54:56.236Z,4.90
2023-03-22T21:57:23.739Z,4.27
2023-03-22T21:59:51.184Z,4.73
2023-03-22T22:02:19.720Z,5.13
2023-03-22T22:04:47.226Z,5.07
2023-03-22T22:07:15.379Z,4.57
2023-03-22T22:09:42.553Z,5.00
2023-03-22T22:12:09.605Z,4.57
2023-03-22T22:14:36.911Z,4.40
2023-03-22T22:17:05.003Z,4.13
2023-03-22T22:19:32.006Z,3.97
2023-03-22T22:21:58.689Z,4.40
2023-03-22T22:24:26.552Z,3.97
2023-03-22T22:26:53.305Z,4.70
2023-03-22T22:29:20.179Z,4.60
2023-03-22T22:31:46.887Z,4.00
2023-03-22T22:34:13.612Z,4.23
2023-03-22T22:36:40.228Z,4.20
2023-03-22T22:39:08.210Z,4.40
2023-03-22T22:41:34.809Z,4.47
2023-03-22T22:44:01.482Z,4.43
2023-03-22T22:46:29.209Z,3.90
2023-03-22T22:48:55.900Z,4.20
2023-03-22T22:51:24.584Z,4.30
2023-03-22T22:53:52.720Z,4.13
2023-03-22T22:56:20.385Z,4.07
2023-03-22T22:58:47.947Z,4.57
2023-03-22T23:01:16.999Z,4.00
2023-03-22T23:03:44.047Z,4.77
2023-03-22T23:06:16.692Z,4.60
2023-03-22T23:08:44.709Z,5.03
2023-03-22T23:11:14.309Z,4.37
2023-03-22T23:13:46.898Z,4.77
2023-03-22T23:16:17.922Z,4.90
2023-03-22T23:18:48.100Z,4.73
2023-03-22T23:21:18.413Z,5.40
2023-03-22T23:23:46.105Z,5.20
2023-03-22T23:26:22.424Z,4.97
2023-03-22T23:28:54.000Z,5.20
2023-03-22T23:31:21.548Z,4.87
2023-03-22T23:33:48.718Z,4.80
2023-03-22T23:36:22.075Z,5.80
2023-03-22T23:38:54.144Z,5.10
2023-03-22T23:41:24.992Z,5.00
2023-03-22T23:43:53.340Z,5.07
2023-03-22T23:46:21.201Z,5.20
2023-03-22T23:48:47.972Z,5.30
2023-03-22T23:51:16.807Z,5.37
2023-03-22T23:53:43.916Z,5.80
2023-03-22T23:56:16.512Z,5.83
2023-03-22T23:58:45.039Z,6.27
